Latest Weather Observations for Port Fairy

IDV60801

Issued at 10:05 am EST Wednesday 24 September 2014 (issued every 30 minutes, with the page automatically refreshed every 10 minutes)

About weather observations | Map of weather stations | Latest weather observations for VIC | Other Formats
Station Details ID: 090175 Name: PORT FAIRY AWS Lat: -38.39 Lon: 142.23 Height: 10.0 m
Data from the previous 72 hours. | See also: Recent months at Port Fairy
Date/Time
EST
Temp
°C
App
Temp
°C
Dew
Point
Rel
Hum
%
Delta-T
°C
Wind Press
QNH
hPa
Press
MSL
hPa
Rain
since 9 am
mm
Dir
 
Spd
km/h
Gust
km/h
Spd
kts
Gust
kts
24/10:00am 16.0 15.8 13.7 86 1.3 NNE 7 13 4 7 1015.3 1015.3 0.0
24/09:30am 15.3 15.2 13.2 87 1.2 NNE 6 9 3 5 1015.3 1015.3 0.0
24/09:00am 14.6 14.7 12.6 88 1.1 NNE 4 6 2 3 1015.5 1015.5 1.2
24/08:30am 13.9 13.3 11.8 87 1.1 NNE 6 7 3 4 1015.6 1015.6 1.2
24/08:00am 13.5 12.6 11.4 87 1.1 NNE 7 11 4 6 1015.6 1015.6 1.2
24/07:30am 13.2 12.2 11.1 87 1.1 N 7 9 4 5 1015.6 1015.6 1.0
24/07:00am 12.9 12.3 10.4 85 1.3 NNE 4 7 2 4 1015.4 1015.4 1.0
24/06:30am 13.1 12.2 10.5 84 1.4 N 6 9 3 5 1015.6 1015.6 0.8
24/06:00am 13.6 12.6 10.2 80 1.8 NNW 6 11 3 6 1015.7 1015.7 0.2
24/05:30am 13.5 12.1 9.7 78 1.9 NW 7 13 4 7 1015.8 1015.8 0.0
24/05:00am 14.1 12.7 9.7 75 2.3 N 7 9 4 5 1015.4 1015.4 0.0
24/04:30am 14.4 13.6 9.8 74 2.4 NNE 4 6 2 3 1015.3 1015.3 0.0
24/04:00am 14.4 13.2 9.6 73 2.5 ENE 6 7 3 4 1015.4 1015.4 0.0
24/03:30am 14.8 14.6 9.2 69 2.9 CALM 0 2 0 1 1016.0 1016.0 0.0
24/03:00am 15.2 13.8 8.7 65 3.3 NW 6 9 3 5 1016.3 1016.3 0.0
24/02:30am 16.2 14.7 8.4 60 4.0 NNW 6 9 3 5 1016.2 1016.2 0.0
24/02:00am 15.7 14.6 9.8 68 3.1 N 6 9 3 5 1016.5 1016.5 0.0
24/01:30am 15.2 14.4 9.8 70 2.8 N 4 6 2 3 1017.0 1017.0 0.0
24/01:00am 15.3 14.4 9.4 68 3.0 N 4 6 2 3 1017.5 1017.5 0.0
24/12:30am 15.9 14.8 9.8 67 3.2 N 6 7 3 4 1017.7 1017.7 0.0
24/12:00am 16.1 14.9 10.2 68 3.1 N 7 9 4 5 1017.8 1017.8 0.0
 
Date/Time
EST
Temp
°C
App
Temp
°C
Dew
Point
Rel
Hum
%
Delta-T
°C
Wind Press
QNH
hPa
Press
MSL
hPa
Rain
since 9 am
mm
Dir
 
Spd
km/h
Gust
km/h
Spd
kts
Gust
kts
23/11:30pm 16.0 14.5 10.5 70 2.9 NNW 9 13 5 7 1018.1 1018.1 0.0
23/11:00pm 15.9 14.2 11.1 73 2.6 NNE 11 15 6 8 1017.5 1017.5 0.0
23/10:30pm 15.5 14.6 11.5 77 2.2 NE 7 11 4 6 1017.9 1017.9 0.0
23/10:00pm 15.9 14.7 11.5 75 2.4 E 9 11 5 6 1018.1 1018.1 0.0
23/09:30pm 15.7 14.8 11.5 76 2.3 E 7 11 4 6 1018.3 1018.3 0.0
23/09:00pm 16.4 15.3 11.8 74 2.5 E 9 13 5 7 1018.7 1018.7 0.0
23/08:30pm 16.7 15.5 11.6 72 2.8 E 9 15 5 8 1018.9 1018.9 0.0
23/08:00pm 16.8 15.0 10.9 68 3.2 E 11 17 6 9 1019.1 1019.1 0.0
23/07:30pm 18.2 16.1 9.8 58 4.4 E 11 17 6 9 1019.3 1019.3 0.0
23/07:00pm 18.8 16.9 9.0 53 5.1 ESE 9 15 5 8 1019.1 1019.1 0.0
23/06:30pm 19.5 18.6 10.5 56 4.9 E 6 7 3 4 1019.1 1019.1 0.0
23/06:00pm 21.4 21.2 10.3 49 6.0 NE 2 2 1 1 1019.4 1019.4 0.0
23/05:30pm 22.6 21.7 9.4 43 7.1 N 4 6 2 3 1019.5 1019.5 0.0
23/05:00pm 23.6 21.7 9.2 40 7.7 N 9 13 5 7 1019.6 1019.6 0.0
23/04:30pm 24.1 20.9 8.5 37 8.3 N 15 22 8 12 1019.7 1019.7 0.0
23/04:00pm 24.4 21.5 8.0 35 8.7 N 13 19 7 10 1019.8 1019.8 0.0
23/03:30pm 24.8 21.1 7.9 34 9.0 N 17 28 9 15 1020.0 1020.0 0.0
23/03:00pm 25.2 21.5 7.8 33 9.2 N 17 26 9 14 1020.2 1020.2 0.0
23/02:30pm 25.1 20.9 7.3 32 9.4 N 19 30 10 16 1020.7 1020.7 0.0
23/02:00pm 25.7 21.2 6.3 29 10.0 N 19 28 10 15 1021.0 1021.0 0.0
23/01:30pm 25.9 21.1 5.5 27 10.4 N 20 26 11 14 1021.2 1021.2 0.0
23/01:00pm 26.1 22.0 4.6 25 10.8 NNW 15 26 8 14 1021.7 1021.7 0.0
23/12:30pm 25.6 21.5 6.3 29 10.0 NNW 17 30 9 16 1022.1 1022.1 0.0
23/12:00pm 25.0 21.5 7.2 32 9.3 N 15 20 8 11 1022.5 1022.5 0.0
23/11:30am 24.4 20.6 7.5 34 8.9 N 17 28 9 15 1022.9 1022.9 0.0
23/11:00am 23.8 20.3 8.6 38 8.1 N 17 28 9 15 1023.3 1023.3 0.0
23/10:30am 22.3 19.5 10.1 46 6.6 N 15 20 8 11 1023.6 1023.6 0.0
23/10:00am 20.6 17.7 9.5 49 5.9 N 15 22 8 12 1024.0 1024.0 0.0
23/09:30am 18.8 15.2 8.2 50 5.5 N 17 24 9 13 1024.1 1024.1 0.0
23/09:00am 17.5 14.1 7.5 52 5.0 N 15 26 8 14 1024.2 1024.2 0.0
23/08:30am 16.2 12.9 6.6 53 4.7 N 13 20 7 11 1024.2 1024.2 0.0
23/08:00am 13.9 10.5 5.8 58 3.8 N 13 19 7 10 1024.1 1024.1 0.0
23/07:30am 12.3 8.7 5.2 62 3.3 N 13 22 7 12 1024.0 1024.0 0.0
23/07:00am 10.9 7.2 4.6 65 2.8 N 13 19 7 10 1023.9 1023.9 0.0
23/06:30am 10.3 6.2 4.5 67 2.6 N 15 20 8 11 1023.7 1023.7 0.0
23/06:00am 10.3 6.6 4.5 67 2.6 N 13 19 7 10 1023.5 1023.5 0.0
23/05:30am 10.3 7.0 4.5 67 2.6 N 11 17 6 9 1023.5 1023.5 0.0
23/05:00am 10.2 6.4 4.1 66 2.7 N 13 17 7 9 1023.3 1023.3 0.0
23/04:30am 10.3 6.5 4.0 65 2.8 N 13 15 7 8 1023.3 1023.3 0.0
23/04:00am 10.3 6.8 3.6 63 2.9 N 11 15 6 8 1023.4 1023.4 0.0
23/03:30am 10.8 7.0 3.8 62 3.1 N 13 17 7 9 1023.3 1023.3 0.0
23/03:00am 11.0 7.6 3.8 61 3.2 N 11 17 6 9 1023.4 1023.4 0.0
23/02:30am 11.4 7.7 4.4 62 3.2 NNE 13 19 7 10 1023.4 1023.4 0.0
23/02:00am 11.1 7.4 4.6 64 2.9 N 13 15 7 8 1023.5 1023.5 0.0
23/01:30am 11.3 7.3 5.0 65 2.9 N 15 19 8 10 1023.7 1023.7 0.0
23/01:00am 11.3 7.7 5.2 66 2.8 N 13 19 7 10 1024.1 1024.1 0.0
23/12:30am 11.2 8.1 5.7 69 2.5 N 11 15 6 8 1024.2 1024.2 0.0
23/12:00am 11.4 8.5 6.3 71 2.4 NNE 11 19 6 10 1024.4 1024.4 0.0
 
Date/Time
EST
Temp
°C
App
Temp
°C
Dew
Point
Rel
Hum
%
Delta-T
°C
Wind Press
QNH
hPa
Press
MSL
hPa
Rain
since 9 am
mm
Dir
 
Spd
km/h
Gust
km/h
Spd
kts
Gust
kts
22/11:30pm 11.7 9.3 7.2 74 2.2 NNE 9 13 5 7 1024.7 1024.7 0.0
22/11:00pm 12.2 9.6 7.9 75 2.1 NNE 11 15 6 8 1024.9 1024.9 0.0
22/10:30pm 12.5 10.5 8.6 77 1.9 NE 9 13 5 7 1025.2 1025.2 0.0
22/10:00pm 13.2 11.0 9.3 77 2.0 NE 11 15 6 8 1025.4 1025.4 0.0
22/09:30pm 13.2 11.4 9.3 77 2.0 NE 9 13 5 7 1025.6 1025.6 0.0
22/09:00pm 13.8 12.3 10.6 81 1.7 ENE 9 13 5 7 1025.8 1025.8 0.0
22/08:30pm 13.6 12.1 10.4 81 1.7 E 9 11 5 6 1025.8 1025.8 0.0
22/08:00pm 14.1 12.6 10.5 79 1.9 E 9 13 5 7 1025.9 1025.9 0.0
22/07:30pm 14.2 12.7 10.4 78 2.0 SE 9 11 5 6 1025.9 1025.9 0.0
22/07:00pm 14.8 12.9 10.4 75 2.3 ESE 11 15 6 8 1025.5 1025.5 0.0
22/06:30pm 15.2 13.7 10.6 74 2.4 ESE 9 13 5 7 1025.1 1025.1 0.0
22/06:00pm 16.1 14.7 10.8 71 2.8 ESE 9 15 5 8 1024.8 1024.8 0.0
22/05:30pm 17.1 15.4 11.2 68 3.2 ESE 11 17 6 9 1024.8 1024.8 0.0
22/05:00pm 17.6 16.3 11.2 66 3.4 SE 9 13 5 7 1024.7 1024.7 0.0
22/04:30pm 18.1 16.5 11.4 65 3.7 SSE 11 15 6 8 1024.6 1024.6 0.0
22/04:00pm 19.1 17.2 10.4 57 4.7 SSE 11 15 6 8 1024.6 1024.6 0.0
22/03:30pm 21.0 18.9 8.3 44 6.6 NNW 9 17 5 9 1024.7 1024.7 0.0
22/03:00pm 22.4 19.4 5.8 34 8.3 N 11 19 6 10 1024.9 1024.9 0.0
22/02:30pm 22.4 19.7 5.4 33 8.5 NNW 9 19 5 10 1025.0 1025.0 0.0
22/02:00pm 22.4 19.6 7.0 37 7.9 N 11 19 6 10 1025.3 1025.3 0.0
22/01:30pm 22.2 19.2 6.0 35 8.2 N 11 17 6 9 1025.5 1025.5 0.0
22/01:00pm 21.9 18.4 5.3 34 8.2 NNW 13 20 7 11 1025.9 1025.9 0.0
22/12:30pm 21.8 18.3 5.3 34 8.2 NNW 13 24 7 13 1026.4 1026.4 0.0
22/12:00pm 21.5 18.7 8.7 44 6.7 N 13 22 7 12 1026.7 1026.7 0.0
22/11:30am 20.4 17.3 9.0 48 6.0 N 15 20 8 11 1027.1 1027.1 0.0
22/11:00am 19.8 18.0 11.0 57 4.8 N 11 17 6 9 1027.4 1027.4 0.0
22/10:30am 18.7 17.2 12.0 65 3.7 N 11 19 6 10 1027.7 1027.7 0.0
22/10:00am 17.0 14.8 10.8 67 3.3 N 13 22 7 12 1027.9 1027.9 0.0
22/09:30am 14.7 12.1 9.3 70 2.8 N 13 19 7 10 1027.9 1027.9 0.0
22/09:00am 13.2 11.0 9.5 78 1.9 N 11 17 6 9 1028.1 1028.1 0.0
22/08:30am 10.5 7.9 7.9 84 1.3 N 11 15 6 8 1028.2 1028.2 0.0
22/08:00am 8.6 6.1 6.7 88 0.9 N 9 15 5 8 1028.2 1028.2 0.0
22/07:30am 6.5 3.7 5.0 90 0.7 N 9 13 5 7 1028.1 1028.1 0.0
22/07:00am 5.0 1.9 3.7 91 0.5 N 9 13 5 7 1027.9 1027.9 0.0
22/06:30am 4.4 1.2 3.1 91 0.5 N 9 13 5 7 1027.8 1027.8 0.0
22/06:00am 4.8 1.3 3.3 90 0.6 NNE 11 15 6 8 1027.5 1027.5 0.0
22/05:30am 5.2 1.4 3.7 90 0.6 NNE 13 17 7 9 1027.5 1027.5 0.0
22/05:00am 5.5 1.7 3.8 89 0.7 NNE 13 17 7 9 1027.3 1027.3 0.0
22/04:30am 5.9 2.2 4.2 89 0.7 NNE 13 17 7 9 1027.3 1027.3 0.0
22/04:00am 6.3 2.6 4.6 89 0.7 NNE 13 17 7 9 1027.2 1027.2 0.0
22/03:30am 6.5 3.2 4.7 88 0.8 NNE 11 17 6 9 1027.3 1027.3 0.0
22/03:00am 6.7 3.4 4.7 87 0.9 NNE 11 17 6 9 1027.6 1027.6 0.0
22/02:30am 6.7 3.4 4.5 86 1.0 NNE 11 19 6 10 1027.9 1027.9 0.0
22/02:00am 7.0 3.3 4.7 85 1.0 NNE 13 20 7 11 1028.1 1028.1 0.0
22/01:30am 7.5 3.9 5.0 84 1.1 NNE 13 19 7 10 1028.5 1028.5 0.0
22/01:00am 8.1 4.6 5.4 83 1.2 NNE 13 19 7 10 1028.7 1028.7 0.0
22/12:30am 8.3 5.6 5.4 82 1.3 NNE 9 15 5 8 1028.9 1028.9 0.0
22/12:00am 9.0 6.7 5.6 79 1.5 NNE 7 11 4 6 1029.0 1029.0 0.0
 
Date/Time
EST
Temp
°C
App
Temp
°C
Dew
Point
Rel
Hum
%
Delta-T
°C
Wind Press
QNH
hPa
Press
MSL
hPa
Rain
since 9 am
mm
Dir
 
Spd
km/h
Gust
km/h
Spd
kts
Gust
kts
21/11:30pm 10.1 6.8 6.4 78 1.7 NE 13 20 7 11 1029.2 1029.2 0.0
21/11:00pm 10.3 6.6 6.5 77 1.8 ENE 15 22 8 12 1029.4 1029.4 0.0
21/10:30pm 10.9 7.3 6.8 76 1.9 ENE 15 28 8 15 1029.6 1029.6 0.0
21/10:00pm 11.4 8.3 7.3 76 2.0 E 13 19 7 10 1029.7 1029.7 0.0
21/09:30pm 11.6 8.5 7.3 75 2.1 E 13 19 7 10 1030.0 1030.0 0.0
21/09:00pm 11.7 8.2 7.2 74 2.1 ESE 15 22 8 12 1030.0 1030.0 0.0
21/08:30pm 11.6 8.4 6.9 73 2.2 ESE 13 19 7 10 1030.1 1030.1 0.0
21/08:00pm 11.5 7.9 6.8 73 2.2 ESE 15 22 8 12 1030.1 1030.1 0.0
21/07:30pm 11.5 7.9 6.6 72 2.3 ESE 15 22 8 12 1030.1 1030.1 0.0
21/07:00pm 11.5 7.9 6.6 72 2.3 ESE 15 20 8 11 1030.0 1030.0 0.0
21/06:30pm 11.6 8.3 6.3 70 2.5 ESE 13 19 7 10 1029.8 1029.8 0.0
21/06:00pm 12.2 8.9 6.3 67 2.8 ESE 13 17 7 9 1029.6 1029.6 0.0
21/05:30pm 12.9 9.6 6.5 65 3.1 ESE 13 17 7 9 1029.4 1029.4 0.0
21/05:00pm 13.5 9.8 6.4 62 3.4 SE 15 19 8 10 1029.3 1029.3 0.0
21/04:30pm 14.0 10.7 6.4 60 3.6 SE 13 19 7 10 1029.5 1029.5 0.0
21/04:00pm 14.2 10.9 6.3 59 3.8 SE 13 19 7 10 1029.6 1029.6 0.0
21/03:30pm 14.8 12.0 6.9 59 3.9 SE 11 17 6 9 1029.9 1029.9 0.0
21/03:00pm 15.1 12.3 6.9 58 4.0 SSE 11 15 6 8 1030.4 1030.4 0.0
21/02:30pm 14.6 11.6 5.9 56 4.2 SE 11 15 6 8 1030.5 1030.6 0.0
21/02:00pm 14.7 11.7 6.0 56 4.1 SE 11 15 6 8 1030.9 1031.0 0.0
21/01:30pm 15.1 12.2 6.4 56 4.2 SE 11 15 6 8 1031.2 1031.3 0.0
21/01:00pm 15.0 12.0 6.0 55 4.3 SE 11 15 6 8 1031.5 1031.6 0.0
21/12:30pm 14.8 11.7 5.6 54 4.4 ESE 11 20 6 11 1032.0 1032.1 0.0
21/12:00pm 14.6 11.6 5.9 56 4.1 E 11 20 6 11 1032.3 1032.4 0.0
21/11:30am 15.1 13.2 6.7 57 4.1 E 6 13 3 7 1032.7 1032.8 0.0
21/11:00am 14.0 11.9 6.6 61 3.5 ENE 7 11 4 6 1032.9 1033.0 0.0
21/10:30am 13.7 12.2 6.6 62 3.4 NE 4 9 2 5 1032.9 1033.0 0.0

Other Formats:

Comma delimited format used in spreadsheet applications
http://www.bom.gov.au/fwo/IDV60801/IDV60801.94830.axf

JavaScript Object Notation format (JSON) in row-major order
http://www.bom.gov.au/fwo/IDV60801/IDV60801.94830.json